Time;durP1;ratioP1;P1;durP2;ratioP2;P2;SDS_P1;SDS_P2;PMS_P1;PMS_P2;Temp;Humidity;BMP_temperature;BMP_pressure;BME280_temperature;BME280_humidity;BME280_pressure;Samples;Min_cycle;Max_cycle;Signal;HPM_P1;HPM_P2
2023/10/19 00:02:05;;;;;;;;;;;;;;;19.82;39.07;100965.64;103253;1288;74427;-80
2023/10/19 00:04:32;;;;;;;;;;;;;;;19.82;39.23;100961.54;103071;1288;62305;-81
2023/10/19 00:06:58;;;;;;;;;;;;;;;19.82;38.98;100958.52;102832;1290;61371;-81
2023/10/19 00:09:25;;;;;;;;;;;;;;;19.82;39.06;100951.73;103025;1288;61404;-81
2023/10/19 00:11:51;;;;;;;;;;;;;;;19.82;39.03;100954.05;103198;1292;61401;-82
2023/10/19 00:14:18;;;;;;;;;;;;;;;19.81;39.06;100949.08;103112;1288;61865;-82
2023/10/19 00:17:11;;;;;;;;;;;;;;;19.82;39.02;100948.55;103207;1287;61324;-82
2023/10/19 00:19:42;;;;;;;;;;;;;;;19.82;39.06;100945.33;102695;1296;72308;-81
2023/10/19 00:22:36;;;;;;;;;;;;;;;19.81;39.20;100942.85;102520;1294;74425;-82
2023/10/19 00:25:03;;;;;;;;;;;;;;;19.82;39.08;100943.19;102256;1303;61482;-82
2023/10/19 00:27:29;;;;;;;;;;;;;;;19.81;39.08;100941.05;102220;1301;61592;-83
2023/10/19 00:30:23;;;;;;;;;;;;;;;19.81;39.09;100940.87;102095;1304;61554;-82
2023/10/19 00:32:48;;;;;;;;;;;;;;;19.82;39.04;100937.65;101770;1311;74356;-82
2023/10/19 00:35:37;;;;;;;;;;;;;;;;;;;;;
2023/10/19 00:38:19;;;;;;;;;;;;;;;19.82;39.01;100931.73;101692;1306;61511;-82
2023/10/19 00:43:57;;;;;;;;;;;;;;;19.82;39.02;100929.42;101610;1306;74444;-82
2023/10/19 00:46:23;;;;;;;;;;;;;;;19.82;38.95;100930.67;101769;1306;61457;-82
2023/10/19 00:48:50;;;;;;;;;;;;;;;19.82;39.03;100931.93;101747;1306;61850;-81
2023/10/19 00:54:40;;;;;;;;;;;;;;;19.82;39.11;100926.73;101174;1311;74578;-82
2023/10/19 00:57:19;;;;;;;;;;;;;;;19.82;39.07;100922.27;101451;1309;61620;-82
2023/10/19 00:59:49;;;;;;;;;;;;;;;19.82;39.02;100918.52;101824;1306;61414;-83
2023/10/19 01:04:45;;;;;;;;;;;;;;;19.82;39.11;100918.88;102074;1305;74215;-81
2023/10/19 01:07:45;;;;;;;;;;;;;;;19.82;38.91;100918.70;102149;1300;61353;-81
2023/10/19 01:10:05;;;;;;;;;;;;;;;19.81;39.02;100917.29;102286;1294;61342;-81
2023/10/19 01:15:17;;;;;;;;;;;;;;;19.81;39.00;100920.51;102327;1297;61411;-82
2023/10/19 01:17:46;;;;;;;;;;;;;;;19.81;38.95;100920.88;102334;1299;61460;-81
2023/10/19 01:20:18;;;;;;;;;;;;;;;19.81;38.99;100918.20;102547;1294;61297;-82
2023/10/19 01:22:49;;;;;;;;;;;;;;;19.80;38.97;100921.61;102531;1298;72335;-82
2023/10/19 01:25:34;;;;;;;;;;;;;;;19.81;39.16;100919.46;102278;1294;75799;-82
2023/10/19 01:28:07;;;;;;;;;;;;;;;19.81;39.06;100917.69;102331;1297;61333;-81
2023/10/19 01:30:33;;;;;;;;;;;;;;;19.81;39.01;100918.05;102854;1293;61408;-82
2023/10/19 01:33:24;;;;;;;;;;;;;;;19.81;38.94;100919.48;103080;1289;73366;-81
2023/10/19 01:38:34;;;;;;;;;;;;;;;19.81;39.02;100918.77;103236;1287;61293;-82
2023/10/19 01:40:59;;;;;;;;;;;;;;;19.80;39.00;100918.77;103031;1288;61490;-81
2023/10/19 01:43:30;;;;;;;;;;;;;;;19.80;38.81;100915.20;103062;1288;61794;-83
2023/10/19 01:45:57;;;;;;;;;;;;;;;19.80;38.80;100918.61;103214;1288;75427;-83
2023/10/19 01:48:33;;;;;;;;;;;;;;;19.80;39.02;100919.14;103093;1289;61451;-83
2023/10/19 01:50:59;;;;;;;;;;;;;;;19.80;38.82;100916.46;103063;1288;62358;-83
2023/10/19 01:53:26;;;;;;;;;;;;;;;19.80;38.85;100912.73;103087;1288;61307;-82
2023/10/19 01:55:57;;;;;;;;;;;;;;;19.80;39.00;100913.06;103196;1289;74362;-81
2023/10/19 01:58:25;;;;;;;;;;;;;;;19.79;39.00;100904.01;103167;1288;61311;-82
2023/10/19 02:00:55;;;;;;;;;;;;;;;19.79;38.97;100902.02;103068;1288;61410;-82
2023/10/19 02:03:30;;;;;;;;;;;;;;;19.79;38.87;100899.71;103227;1288;72503;-80
2023/10/19 02:05:59;;;;;;;;;;;;;;;19.79;38.89;100899.52;103050;1290;74484;-82
2023/10/19 02:08:26;;;;;;;;;;;;;;;19.79;38.81;100896.69;103157;1289;61497;-85
2023/10/19 02:10:53;;;;;;;;;;;;;;;19.80;38.88;100894.33;103083;1288;61332;-82
2023/10/19 02:13:19;;;;;;;;;;;;;;;19.79;38.78;100893.30;103037;1293;61280;-81
2023/10/19 02:15:51;;;;;;;;;;;;;;;19.79;38.93;100893.81;103050;1288;74650;-82
2023/10/19 02:18:17;;;;;;;;;;;;;;;19.79;38.93;100892.80;103276;1292;62099;-81
2023/10/19 02:20:48;;;;;;;;;;;;;;;19.79;38.93;100894.05;102966;1287;316692;-82
2023/10/19 02:23:14;;;;;;;;;;;;;;;19.79;38.81;100896.91;103193;1287;72404;-83
2023/10/19 02:25:40;;;;;;;;;;;;;;;19.79;38.97;100894.38;103028;1293;61544;-81
2023/10/19 02:28:09;;;;;;;;;;;;;;;19.79;38.85;100888.33;103195;1288;61408;-82
2023/10/19 02:30:34;;;;;;;;;;;;;;;19.79;38.77;100888.53;103199;1288;62644;-83
2023/10/19 02:33:01;;;;;;;;;;;;;;;19.79;38.90;100889.77;103180;1288;62487;-81
2023/10/19 02:35:27;;;;;;;;;;;;;;;19.78;38.81;100891.56;103037;1290;61369;-82
2023/10/19 02:37:53;;;;;;;;;;;;;;;19.78;38.77;100883.73;103094;1288;61448;-82
2023/10/19 02:40:23;;;;;;;;;;;;;;;19.78;38.85;100880.33;103037;1288;61385;-81
2023/10/19 02:42:53;;;;;;;;;;;;;;;19.78;38.97;100883.55;103020;1293;73369;-82
2023/10/19 02:45:19;;;;;;;;;;;;;;;19.78;38.99;100885.89;103193;1288;74421;-83
2023/10/19 02:47:45;;;;;;;;;;;;;;;19.77;38.94;100879.83;103206;1291;62580;-82
2023/10/19 02:50:16;;;;;;;;;;;;;;;19.78;38.84;100878.73;103036;1288;61294;-83
2023/10/19 02:52:43;;;;;;;;;;;;;;;19.77;38.94;100878.60;103059;1290;72585;-81
2023/10/19 02:55:16;;;;;;;;;;;;;;;19.77;38.76;100879.65;103222;1293;74499;-81
2023/10/19 02:57:46;;;;;;;;;;;;;;;19.76;38.91;100875.95;103176;1288;61296;-81
2023/10/19 03:00:13;;;;;;;;;;;;;;;19.77;38.80;100879.13;103069;1288;61672;-81
2023/10/19 03:02:39;;;;;;;;;;;;;;;19.77;38.77;100876.27;103195;1288;72302;-83
2023/10/19 03:05:17;;;;;;;;;;;;;;;19.77;38.91;100877.70;103002;1288;75511;-81
2023/10/19 03:07:43;;;;;;;;;;;;;;;19.77;38.84;100878.60;103024;1288;61384;-81
2023/10/19 03:10:22;;;;;;;;;;;;;;;19.77;38.72;100880.93;103053;1288;61374;-85
2023/10/19 03:12:49;;;;;;;;;;;;;;;19.77;38.77;100880.21;103205;1292;73536;-81
2023/10/19 03:15:15;;;;;;;;;;;;;;;19.77;38.79;100882.70;103146;1288;74301;-83
2023/10/19 03:17:40;;;;;;;;;;;;;;;19.76;38.84;100880.04;103052;1291;61472;-81
2023/10/19 03:20:08;;;;;;;;;;;;;;;19.77;38.79;100880.22;103174;1288;61381;-84
2023/10/19 03:22:34;;;;;;;;;;;;;;;19.76;38.78;100881.14;103152;1288;61407;-81
2023/10/19 03:25:44;;;;;;;;;;;;;;;19.76;38.82;100879.36;103196;1291;61440;-83
2023/10/19 03:27:45;;;;;;;;;;;;;;;19.76;38.82;100876.52;103190;1288;61301;-82
2023/10/19 03:30:15;;;;;;;;;;;;;;;19.76;38.86;100876.66;103206;1288;62555;-81
2023/10/19 03:33:04;;;;;;;;;;;;;;;19.76;38.77;100877.92;103150;1292;72553;-82
2023/10/19 03:35:30;;;;;;;;;;;;;;;19.76;38.75;100879.19;102585;1294;74751;-82
2023/10/19 03:38:00;;;;;;;;;;;;;;;19.74;38.71;100880.42;102584;1294;61578;-81
2023/10/19 03:40:30;;;;;;;;;;;;;;;19.72;38.65;100875.67;102592;1294;61495;-81
2023/10/19 03:42:56;;;;;;;;;;;;;;;19.71;38.72;100872.39;102651;1293;73520;-83
2023/10/19 03:45:24;;;;;;;;;;;;;;;19.69;38.79;100871.81;102567;1293;75605;-81
2023/10/19 03:48:18;;;;;;;;;;;;;;;19.67;38.64;100871.57;102593;1294;62290;-82
2023/10/19 03:50:43;;;;;;;;;;;;;;;19.65;38.37;100867.41;102142;1299;61950;-82
2023/10/19 03:53:12;;;;;;;;;;;;;;;19.64;38.55;100865.17;102254;1300;61522;-81
2023/10/19 03:55:43;;;;;;;;;;;;;;;19.63;38.56;100864.02;102226;1300;74520;-82
2023/10/19 03:58:08;;;;;;;;;;;;;;;19.60;38.44;100858.21;102141;1299;61925;-83
2023/10/19 04:00:34;;;;;;;;;;;;;;;19.60;38.43;100861.11;102249;1301;61393;-81
2023/10/19 04:02:59;;;;;;;;;;;;;;;19.58;38.38;100859.77;102125;1300;63033;-83
2023/10/19 04:05:26;;;;;;;;;;;;;;;19.57;38.52;100860.56;102144;1300;61394;-81
2023/10/19 04:07:55;;;;;;;;;;;;;;;19.55;38.28;100861.40;102161;1303;61518;-82
2023/10/19 04:10:30;;;;;;;;;;;;;;;19.53;38.19;100864.04;102165;1301;62569;-81
2023/10/19 04:12:59;;;;;;;;;;;;;;;19.52;38.40;100859.68;102193;1306;72467;-82
2023/10/19 04:15:26;;;;;;;;;;;;;;;19.51;38.44;100855.83;102565;1296;74449;-82
2023/10/19 04:17:52;;;;;;;;;;;;;;;19.50;38.20;100852.47;102310;1296;61473;-81
2023/10/19 04:23:15;;;;;;;;;;;;;;;19.43;38.04;100841.48;102359;1295;61481;-81
2023/10/19 04:25:41;;;;;;;;;;;;;;;19.39;38.26;100839.92;102145;1305;74656;-82
2023/10/19 04:28:06;;;;;;;;;;;;;;;19.37;38.23;100840.06;102273;1294;61440;-84
2023/10/19 04:30:33;;;;;;;;;;;;;;;19.33;38.10;100842.15;102923;1291;62316;-82
2023/10/19 04:33:00;;;;;;;;;;;;;;;19.27;38.02;100844.11;103336;1294;61206;-81
2023/10/19 04:35:29;;;;;;;;;;;;;;;19.22;38.13;100845.11;103081;1293;61498;-81
2023/10/19 04:37:56;;;;;;;;;;;;;;;19.20;38.12;100843.80;103364;1293;61382;-81
2023/10/19 04:40:25;;;;;;;;;;;;;;;19.22;38.33;100846.73;103241;1294;61394;-81
2023/10/19 04:42:53;;;;;;;;;;;;;;;19.25;38.27;100848.16;103285;1294;72503;-81
2023/10/19 04:45:19;;;;;;;;;;;;;;;19.27;38.25;100851.75;103358;1293;74330;-81
2023/10/19 04:47:46;;;;;;;;;;;;;;;19.29;38.43;100847.55;103576;1294;61287;-82
2023/10/19 04:50:13;;;;;;;;;;;;;;;19.30;38.53;100844.23;103657;1294;61277;-82
2023/10/19 04:52:39;;;;;;;;;;;;;;;19.30;38.40;100841.05;103478;1292;61418;-80
2023/10/19 04:55:04;;;;;;;;;;;;;;;19.31;38.35;100841.52;103658;1293;61917;-80
2023/10/19 04:57:30;;;;;;;;;;;;;;;19.30;38.36;100844.42;103584;1294;61486;-80
2023/10/19 04:59:56;;;;;;;;;;;;;;;19.29;38.54;100845.58;104271;1292;61519;-82
2023/10/19 05:02:21;;;;;;;;;;;;;;;19.29;38.39;100845.98;104713;1293;59408;-81
2023/10/19 05:04:47;;;;;;;;;;;;;;;19.28;38.56;100849.75;104332;1288;59677;-82
2023/10/19 05:07:16;;;;;;;;;;;;;;;19.28;38.58;100853.16;104403;1288;74230;-82
2023/10/19 05:09:45;;;;;;;;;;;;;;;19.29;38.49;100854.18;104158;1288;61266;-82
2023/10/19 05:12:11;;;;;;;;;;;;;;;19.29;38.43;100856.65;103929;1286;61361;-82
2023/10/19 05:14:37;;;;;;;;;;;;;;;19.27;38.55;100856.06;104159;1288;61330;-81
2023/10/19 05:17:05;;;;;;;;;;;;;;;19.26;38.46;100854.86;104301;1288;61266;-82
2023/10/19 05:19:31;;;;;;;;;;;;;;;19.25;38.31;100858.87;104055;1288;61405;-82
2023/10/19 05:21:57;;;;;;;;;;;;;;;19.25;38.39;100860.65;104033;1288;61547;-81
2023/10/19 05:24:22;;;;;;;;;;;;;;;19.24;38.35;100859.23;104353;1287;61292;-82
2023/10/19 05:26:48;;;;;;;;;;;;;;;19.24;38.29;100855.52;104541;1287;62483;-81
2023/10/19 05:29:13;;;;;;;;;;;;;;;19.23;38.25;100850.38;104560;1287;61276;-81
2023/10/19 05:31:39;;;;;;;;;;;;;;;19.22;38.21;100850.80;104312;1288;61790;-82
2023/10/19 05:34:04;;;;;;;;;;;;;;;19.22;38.27;100850.98;104383;1292;61371;-82
2023/10/19 05:36:32;;;;;;;;;;;;;;;19.22;38.18;100855.63;104457;1288;61333;-83
2023/10/19 05:38:58;;;;;;;;;;;;;;;19.23;38.30;100857.20;104188;1287;74548;-79
2023/10/19 05:41:23;;;;;;;;;;;;;;;19.24;38.30;100860.36;104201;1290;61412;-79
2023/10/19 05:43:50;;;;;;;;;;;;;;;19.23;38.37;100855.18;104002;1288;61294;-79
2023/10/19 05:46:19;;;;;;;;;;;;;;;19.23;38.43;100858.42;104434;1286;61423;-79
2023/10/19 05:48:45;;;;;;;;;;;;;;;19.23;38.34;100857.02;104964;1288;74300;-81
2023/10/19 05:51:10;;;;;;;;;;;;;;;19.23;38.39;100861.83;104772;1286;61375;-82
2023/10/19 05:53:37;;;;;;;;;;;;;;;19.22;38.39;100865.78;104756;1288;61293;-83
2023/10/19 05:56:02;;;;;;;;;;;;;;;19.17;38.45;100865.40;106259;1286;59464;-81
2023/10/19 05:58:28;;;;;;;;;;;;;;;19.09;38.40;100872.69;105360;1288;59177;-83
2023/10/19 06:00:53;;;;;;;;;;;;;;;19.05;38.57;100870.60;104688;1286;60270;-81
2023/10/19 06:03:19;;;;;;;;;;;;;;;19.00;38.68;100872.89;106137;1287;59233;-82
2023/10/19 06:05:44;;;;;;;;;;;;;;;18.95;38.72;100874.05;105164;1287;61402;-80
2023/10/19 06:08:11;;;;;;;;;;;;;;;18.98;38.89;100876.95;104327;1289;61326;-81
2023/10/19 06:10:39;;;;;;;;;;;;;;;18.99;38.93;100879.00;104196;1287;61277;-81
2023/10/19 06:13:09;;;;;;;;;;;;;;;19.00;38.80;100879.63;104286;1288;61306;-81
2023/10/19 06:15:35;;;;;;;;;;;;;;;19.00;38.94;100878.95;104251;1288;61341;-80
2023/10/19 06:18:00;;;;;;;;;;;;;;;19.01;38.88;100878.17;104368;1287;61417;-81
2023/10/19 06:20:26;;;;;;;;;;;;;;;19.03;38.78;100879.63;104325;1287;61868;-81
2023/10/19 06:22:52;;;;;;;;;;;;;;;19.05;38.70;100880.78;104350;1288;61482;-81
2023/10/19 06:25:18;;;;;;;;;;;;;;;19.06;38.72;100888.20;104576;1289;61389;-81
2023/10/19 06:27:44;;;;;;;;;;;;;;;19.07;38.70;100893.88;104790;1288;61292;-81
2023/10/19 06:30:10;;;;;;;;;;;;;;;19.08;38.71;100891.85;104246;1291;61986;-81
2023/10/19 06:32:36;;;;;;;;;;;;;;;19.08;38.57;100890.19;104470;1287;74686;-81
2023/10/19 06:35:02;;;;;;;;;;;;;;;19.10;38.54;100891.01;104469;1287;61210;-81
2023/10/19 06:37:28;;;;;;;;;;;;;;;19.11;38.68;100888.98;104185;1288;61482;-81
2023/10/19 06:39:53;;;;;;;;;;;;;;;19.13;38.60;100890.66;104024;1288;61549;-81
2023/10/19 06:42:20;;;;;;;;;;;;;;;19.13;38.62;100890.81;104301;1287;61814;-82
2023/10/19 06:44:46;;;;;;;;;;;;;;;19.13;38.60;100886.01;104337;1287;61351;-82
2023/10/19 06:47:13;;;;;;;;;;;;;;;19.13;38.56;100885.86;104058;1288;61465;-82
2023/10/19 06:49:39;;;;;;;;;;;;;;;19.12;38.55;100882.30;104492;1287;61253;-82
2023/10/19 06:52:04;;;;;;;;;;;;;;;19.13;38.62;100887.25;104267;1292;61335;-80
2023/10/19 06:54:30;;;;;;;;;;;;;;;19.12;38.57;100884.64;104702;1287;61306;-81
2023/10/19 06:56:56;;;;;;;;;;;;;;;19.07;38.79;100879.39;104767;1288;61340;-81
2023/10/19 06:59:23;;;;;;;;;;;;;;;19.07;38.85;100876.01;104884;1288;62579;-80
2023/10/19 07:01:50;;;;;;;;;;;;;;;19.09;39.16;100869.99;104775;1287;72384;-81
2023/10/19 07:04:16;;;;;;;;;;;;;;;19.12;39.36;100868.61;104528;1287;61321;-81
2023/10/19 07:06:41;;;;;;;;;;;;;;;19.14;39.19;100867.42;104494;1288;62913;-81
2023/10/19 07:09:07;;;;;;;;;;;;;;;19.14;39.32;100859.34;104582;1287;61780;-80
2023/10/19 07:11:35;;;;;;;;;;;;;;;19.11;39.26;100857.22;105082;1286;61384;-81
2023/10/19 07:14:00;;;;;;;;;;;;;;;19.11;39.35;100848.86;104860;1288;61337;-81
2023/10/19 07:16:27;;;;;;;;;;;;;;;19.10;39.33;100844.80;104641;1288;60114;-81
2023/10/19 07:18:53;;;;;;;;;;;;;;;19.11;39.42;100839.77;104639;1289;59713;-81
2023/10/19 07:21:18;;;;;;;;;;;;;;;19.10;39.45;100839.98;104765;1286;61317;-80
2023/10/19 07:23:45;;;;;;;;;;;;;;;19.11;39.34;100843.48;104670;1288;61404;-81
2023/10/19 07:26:14;;;;;;;;;;;;;;;19.13;39.33;100840.36;104668;1288;74411;-80
2023/10/19 07:28:40;;;;;;;;;;;;;;;19.14;39.47;100834.93;106348;1288;60786;-80
2023/10/19 07:31:12;;;;;;;;;;;;;;;19.16;39.29;100834.44;106402;1287;60777;-81
2023/10/19 07:33:42;;;;;;;;;;;;;;;19.18;39.55;100841.64;106257;1286;73543;-81
2023/10/19 07:36:13;;;;;;;;;;;;;;;19.20;39.29;100836.69;106315;1286;74416;-81
2023/10/19 07:38:39;;;;;;;;;;;;;;;19.22;39.46;100834.75;106338;1286;60530;-81
2023/10/19 07:41:05;;;;;;;;;;;;;;;19.25;39.39;100836.70;106305;1287;59168;-81
2023/10/19 07:43:31;;;;;;;;;;;;;;;19.27;39.39;100828.23;106183;1286;59108;-80
2023/10/19 07:45:56;;;;;;;;;;;;;;;19.29;39.24;100830.98;106119;1287;59391;-82
2023/10/19 07:48:22;;;;;;;;;;;;;;;19.31;39.31;100833.20;104945;1286;61308;-81
2023/10/19 07:50:47;;;;;;;;;;;;;;;19.31;39.20;100831.02;105010;1288;59802;-82
2023/10/19 07:53:13;;;;;;;;;;;;;;;19.32;39.21;100830.40;104736;1292;61351;-81
2023/10/19 07:55:39;;;;;;;;;;;;;;;19.29;39.17;100834.34;104686;1287;61306;-81
2023/10/19 07:58:06;;;;;;;;;;;;;;;19.20;39.19;100830.64;104585;1287;61331;-82
2023/10/19 08:00:35;;;;;;;;;;;;;;;19.15;39.27;100824.87;104961;1288;61333;-81
2023/10/19 08:03:01;;;;;;;;;;;;;;;19.08;39.35;100823.33;104729;1286;61332;-81
2023/10/19 08:05:27;;;;;;;;;;;;;;;19.00;39.51;100817.80;104430;1287;61388;-81
2023/10/19 08:07:53;;;;;;;;;;;;;;;18.97;39.73;100815.08;104544;1287;61166;-82
2023/10/19 08:10:19;;;;;;;;;;;;;;;18.99;39.87;100814.60;104847;1291;61397;-81
2023/10/19 08:12:47;;;;;;;;;;;;;;;19.03;39.77;100814.88;104890;1286;61404;-81
2023/10/19 08:15:13;;;;;;;;;;;;;;;19.08;39.96;100812.25;104671;1293;61386;-80
2023/10/19 08:17:40;;;;;;;;;;;;;;;19.14;39.96;100809.23;104834;1291;61382;-81
2023/10/19 08:20:09;;;;;;;;;;;;;;;19.18;39.98;100811.62;104726;1288;61370;-82
2023/10/19 08:22:36;;;;;;;;;;;;;;;19.23;39.95;100810.63;106139;1288;59778;-81
2023/10/19 08:25:04;;;;;;;;;;;;;;;19.24;39.89;100810.75;106302;1287;72497;-82
2023/10/19 08:27:29;;;;;;;;;;;;;;;19.24;39.95;100807.71;105232;1287;74362;-82
2023/10/19 08:29:55;;;;;;;;;;;;;;;19.27;39.99;100808.23;105064;1288;61449;-82
2023/10/19 08:32:21;;;;;;;;;;;;;;;19.30;39.98;100805.22;105024;1288;61695;-81
2023/10/19 08:34:47;;;;;;;;;;;;;;;19.32;40.14;100805.56;104787;1288;59434;-82
2023/10/19 08:37:13;;;;;;;;;;;;;;;19.34;40.18;100806.52;104954;1287;61157;-81
2023/10/19 08:39:40;;;;;;;;;;;;;;;19.37;40.14;100805.31;104448;1288;61376;-81
2023/10/19 08:42:05;;;;;;;;;;;;;;;19.38;40.22;100806.45;104566;1287;61384;-81
2023/10/19 08:44:31;;;;;;;;;;;;;;;19.39;40.23;100804.78;104649;1288;61398;-81
2023/10/19 08:46:59;;;;;;;;;;;;;;;19.39;40.05;100805.19;104387;1290;72571;-82
2023/10/19 08:49:24;;;;;;;;;;;;;;;19.38;40.16;100810.41;104621;1288;74192;-81
2023/10/19 08:51:50;;;;;;;;;;;;;;;19.37;40.15;100812.07;104857;1288;59622;-83
2023/10/19 08:54:15;;;;;;;;;;;;;;;19.37;40.12;100811.52;104781;1286;61341;-81
2023/10/19 08:56:41;;;;;;;;;;;;;;;19.38;40.23;100807.19;104705;1288;61307;-81
2023/10/19 08:59:15;;;;;;;;;;;;;;;19.38;40.44;100807.17;106064;1288;59293;-82
2023/10/19 09:01:43;;;;;;;;;;;;;;;19.35;40.52;100801.84;105270;1288;74672;-83
2023/10/19 09:04:13;;;;;;;;;;;;;;;19.33;40.64;100797.16;106258;1288;60199;-81
2023/10/19 09:06:42;;;;;;;;;;;;;;;19.35;40.83;100786.86;105150;1286;60990;-81
2023/10/19 09:09:09;;;;;;;;;;;;;;;19.29;40.75;100782.22;105024;1288;72162;-85
2023/10/19 09:11:35;;;;;;;;;;;;;;;19.21;40.84;100778.27;105053;1290;75348;-82
2023/10/19 09:14:03;;;;;;;;;;;;;;;19.15;40.93;100774.19;105204;1288;60004;-81
2023/10/19 09:16:30;;;;;;;;;;;;;;;19.13;40.87;100772.52;104807;1288;61337;-82
2023/10/19 09:18:57;;;;;;;;;;;;;;;19.12;40.91;100766.20;104983;1287;73706;-82
2023/10/19 09:21:25;;;;;;;;;;;;;;;19.14;41.02;100771.96;104397;1288;73223;-81
2023/10/19 09:23:52;;;;;;;;;;;;;;;19.18;41.07;100764.17;104475;1286;61368;-81
2023/10/19 09:26:18;;;;;;;;;;;;;;;19.23;41.05;100754.76;104374;1291;61452;-82
2023/10/19 09:28:47;;;;;;;;;;;;;;;19.28;41.18;100757.35;104549;1292;59474;-83
2023/10/19 09:31:13;;;;;;;;;;;;;;;19.31;40.97;100753.95;104187;1287;74318;-82
2023/10/19 09:33:40;;;;;;;;;;;;;;;19.33;41.16;100751.13;104503;1287;61379;-82
2023/10/19 09:36:12;;;;;;;;;;;;;;;19.35;41.12;100753.15;103848;1288;61356;-81
2023/10/19 09:38:50;;;;;;;;;;;;;;;19.31;41.10;100747.34;104342;1288;72399;-82
2023/10/19 09:41:17;;;;;;;;;;;;;;;19.26;41.08;100739.04;104816;1289;73479;-82
2023/10/19 09:43:46;;;;;;;;;;;;;;;19.27;41.25;100734.20;104545;1287;62440;-82
2023/10/19 09:46:12;;;;;;;;;;;;;;;19.30;41.31;100731.00;104740;1288;61312;-82
2023/10/19 09:48:41;;;;;;;;;;;;;;;19.32;41.17;100732.42;104716;1288;61391;-81
2023/10/19 09:51:08;;;;;;;;;;;;;;;19.36;41.37;100731.44;104439;1290;74212;-82
2023/10/19 09:53:35;;;;;;;;;;;;;;;19.39;41.36;100725.93;104438;1291;61285;-82
2023/10/19 09:56:01;;;;;;;;;;;;;;;19.38;41.18;100722.75;104304;1294;61263;-81
2023/10/19 09:58:29;;;;;;;;;;;;;;;19.33;41.12;100722.21;104740;1288;61264;-82
2023/10/19 10:00:57;;;;;;;;;;;;;;;19.31;41.17;100721.98;104488;1288;74541;-84
2023/10/19 10:03:42;;;;;;;;;;;;;;;19.33;41.31;100718.63;104989;1289;60114;-82
2023/10/19 10:06:08;;;;;;;;;;;;;;;19.31;41.15;100715.00;105274;1289;60901;-82
2023/10/19 10:08:36;;;;;;;;;;;;;;;19.30;41.23;100707.55;105109;1288;60074;-86
2023/10/19 10:11:17;;;;;;;;;;;;;;;19.35;41.42;100704.96;105956;1288;74437;-81
2023/10/19 10:13:45;;;;;;;;;;;;;;;19.38;41.46;100702.41;106099;1287;59899;-81
2023/10/19 10:16:11;;;;;;;;;;;;;;;19.41;41.37;100692.95;104911;1288;61358;-82
2023/10/19 10:18:37;;;;;;;;;;;;;;;19.40;41.23;100687.11;104742;1286;71329;-82
2023/10/19 10:21:26;;;;;;;;;;;;;;;19.37;41.32;100683.59;104961;1286;74484;-82
2023/10/19 10:24:02;;;;;;;;;;;;;;;19.37;41.40;100678.41;104563;1295;61206;-82
2023/10/19 10:26:36;;;;;;;;;;;;;;;19.36;41.52;100674.02;104377;1295;63363;-79
2023/10/19 10:29:19;;;;;;;;;;;;;;;19.37;41.64;100670.22;104152;1294;72053;-82
2023/10/19 10:31:46;;;;;;;;;;;;;;;19.36;41.46;100665.80;104350;1297;74610;-81
2023/10/19 10:34:12;;;;;;;;;;;;;;;19.32;41.38;100661.27;104342;1294;61326;-81
2023/10/19 10:37:16;;;;;;;;;;;;;;;19.29;41.38;100658.40;104219;1292;61287;-82
2023/10/19 10:39:44;;;;;;;;;;;;;;;19.36;41.80;100656.48;103794;1299;72598;-81
2023/10/19 10:42:10;;;;;;;;;;;;;;;19.40;41.83;100649.10;103608;1299;74756;-81
2023/10/19 10:44:38;;;;;;;;;;;;;;;19.44;42.01;100641.52;103878;1300;61429;-82
2023/10/19 10:47:08;;;;;;;;;;;;;;;19.44;41.76;100638.84;103845;1300;59509;-82
2023/10/19 10:49:35;;;;;;;;;;;;;;;19.45;41.89;100637.73;103652;1301;72434;-82
2023/10/19 10:52:01;;;;;;;;;;;;;;;19.46;41.76;100639.45;105211;1299;74933;-82
2023/10/19 10:54:26;;;;;;;;;;;;;;;19.48;41.79;100630.75;105235;1299;59076;-82
2023/10/19 10:56:52;;;;;;;;;;;;;;;19.49;41.68;100629.75;105149;1299;60116;-82
2023/10/19 10:59:17;;;;;;;;;;;;;;;19.53;41.80;100627.17;105106;1301;59256;-83
2023/10/19 11:01:43;;;;;;;;;;;;;;;19.54;41.73;100623.89;105300;1299;59571;-82
2023/10/19 11:04:14;;;;;;;;;;;;;;;19.57;41.63;100619.44;105395;1296;74377;-82
2023/10/19 11:06:50;;;;;;;;;;;;;;;19.57;41.76;100618.89;105442;1299;60178;-82
2023/10/19 11:09:24;;;;;;;;;;;;;;;19.56;41.49;100610.36;105289;1296;60199;-83
2023/10/19 11:11:52;;;;;;;;;;;;;;;19.56;41.50;100607.34;105942;1288;72788;-83
2023/10/19 11:14:21;;;;;;;;;;;;;;;19.58;41.41;100600.45;106090;1286;74396;-83
2023/10/19 11:16:47;;;;;;;;;;;;;;;19.60;41.38;100596.52;106166;1288;61273;-82
2023/10/19 11:19:12;;;;;;;;;;;;;;;19.63;41.31;100591.90;106126;1290;59226;-82
2023/10/19 11:21:50;;;;;;;;;;;;;;;19.65;41.48;100589.23;106140;1288;59166;-83
2023/10/19 11:24:24;;;;;;;;;;;;;;;19.69;41.57;100592.70;106132;1286;75644;-82
2023/10/19 11:26:49;;;;;;;;;;;;;;;19.71;41.50;100588.66;106182;1286;59751;-82
2023/10/19 11:29:16;;;;;;;;;;;;;;;19.72;41.63;100589.27;106241;1289;58893;-82
2023/10/19 11:31:41;;;;;;;;;;;;;;;19.75;41.72;100584.23;106311;1286;59105;-82
2023/10/19 11:34:08;;;;;;;;;;;;;;;19.79;41.89;100577.39;106106;1288;59349;-82
2023/10/19 11:36:34;;;;;;;;;;;;;;;19.84;41.67;100574.60;106256;1286;59362;-83
2023/10/19 11:38:59;;;;;;;;;;;;;;;19.88;41.92;100573.41;106213;1287;59468;-83
2023/10/19 11:41:25;;;;;;;;;;;;;;;19.90;41.72;100568.73;106180;1287;59047;-83
2023/10/19 11:43:50;;;;;;;;;;;;;;;19.92;41.87;100567.19;106199;1286;59848;-82
2023/10/19 11:46:17;;;;;;;;;;;;;;;19.95;41.77;100556.48;106184;1288;59879;-82
2023/10/19 11:48:43;;;;;;;;;;;;;;;19.97;41.79;100548.00;105063;1288;60944;-81
2023/10/19 11:51:13;;;;;;;;;;;;;;;19.97;41.75;100542.95;104593;1286;60572;-81
2023/10/19 11:53:39;;;;;;;;;;;;;;;19.96;41.57;100542.70;104817;1288;72443;-81
2023/10/19 11:56:06;;;;;;;;;;;;;;;19.94;41.36;100539.26;104495;1288;75463;-81
2023/10/19 11:58:34;;;;;;;;;;;;;;;19.92;41.31;100538.33;104727;1286;61304;-81
2023/10/19 12:01:05;;;;;;;;;;;;;;;19.90;41.34;100539.52;106256;1286;59085;-82
2023/10/19 12:03:31;;;;;;;;;;;;;;;19.90;41.38;100536.80;106168;1286;72431;-81
2023/10/19 12:05:56;;;;;;;;;;;;;;;19.89;41.51;100539.02;106263;1288;59535;-82
2023/10/19 12:08:22;;;;;;;;;;;;;;;19.88;41.32;100535.40;106199;1288;60056;-82
2023/10/19 12:10:49;;;;;;;;;;;;;;;19.85;41.20;100532.86;106060;1291;59144;-83
2023/10/19 12:13:16;;;;;;;;;;;;;;;19.85;41.21;100532.75;105167;1292;59315;-79
2023/10/19 12:15:41;;;;;;;;;;;;;;;19.85;41.32;100528.25;104473;1293;61345;-82
2023/10/19 12:18:08;;;;;;;;;;;;;;;19.86;41.17;100525.85;104119;1289;61403;-82
2023/10/19 12:20:35;;;;;;;;;;;;;;;19.89;41.15;100520.80;104679;1288;61001;-83
2023/10/19 12:23:00;;;;;;;;;;;;;;;19.92;41.09;100517.00;104714;1292;60172;-82
2023/10/19 12:25:29;;;;;;;;;;;;;;;19.94;40.90;100516.71;104342;1292;61373;-81
2023/10/19 12:27:55;;;;;;;;;;;;;;;19.94;40.89;100514.95;104617;1288;61394;-82
2023/10/19 12:30:21;;;;;;;;;;;;;;;19.93;40.82;100516.80;104544;1293;61408;-82
2023/10/19 12:32:51;;;;;;;;;;;;;;;19.91;40.65;100512.32;104530;1288;61214;-82
2023/10/19 12:35:19;;;;;;;;;;;;;;;19.86;40.52;100509.39;104476;1288;75271;-81
2023/10/19 12:37:51;;;;;;;;;;;;;;;19.83;40.49;100510.35;104206;1293;61154;-82
2023/10/19 12:40:35;;;;;;;;;;;;;;;19.81;40.29;100508.00;104726;1288;61274;-82
2023/10/19 12:43:07;;;;;;;;;;;;;;;19.79;40.22;100508.63;104711;1290;72727;-83
2023/10/19 12:45:36;;;;;;;;;;;;;;;19.77;40.30;100508.95;104972;1288;74332;-82
2023/10/19 12:48:04;;;;;;;;;;;;;;;19.77;40.18;100505.91;105016;1292;60849;-81
2023/10/19 12:50:30;;;;;;;;;;;;;;;19.77;40.04;100499.66;106314;1288;60251;-83
2023/10/19 12:52:56;;;;;;;;;;;;;;;19.78;40.01;100494.77;105474;1288;59639;-82